createdAt,value
2023-05-12T00:01:42.100Z,12.80
2023-05-12T00:04:09.136Z,12.70
2023-05-12T00:06:37.092Z,12.70
2023-05-12T00:09:04.024Z,12.70
2023-05-12T00:11:30.886Z,12.70
2023-05-12T00:13:57.798Z,12.70
2023-05-12T00:16:25.025Z,12.70
2023-05-12T00:18:52.448Z,12.70
2023-05-12T00:21:19.456Z,12.70
2023-05-12T00:23:46.360Z,12.80
2023-05-12T00:26:13.222Z,12.80
2023-05-12T00:28:40.091Z,12.80
2023-05-12T00:31:07.026Z,12.80
2023-05-12T00:33:34.885Z,12.70
2023-05-12T00:36:03.591Z,12.80
2023-05-12T00:38:31.502Z,12.80
2023-05-12T00:40:58.386Z,12.80
2023-05-12T00:43:25.268Z,12.80
2023-05-12T00:45:52.442Z,12.80
2023-05-12T00:48:19.329Z,12.90
2023-05-12T00:50:46.332Z,12.90
2023-05-12T00:53:13.500Z,12.90
2023-05-12T00:55:40.400Z,12.90
2023-05-12T00:58:07.395Z,13.00
2023-05-12T01:00:34.242Z,13.00
2023-05-12T01:03:01.357Z,13.00
2023-05-12T01:05:32.027Z,13.00
2023-05-12T01:07:59.931Z,13.00
2023-05-12T01:10:26.818Z,13.00
2023-05-12T01:12:53.711Z,13.00
2023-05-12T01:15:20.591Z,13.00
2023-05-12T01:17:52.393Z,13.00
2023-05-12T01:20:20.908Z,13.10
2023-05-12T01:22:48.102Z,13.10
2023-05-12T01:25:15.274Z,13.10
2023-05-12T01:27:42.133Z,13.10
2023-05-12T01:30:09.533Z,13.20
2023-05-12T01:32:36.775Z,13.10
2023-05-12T01:35:03.840Z,13.20
2023-05-12T01:37:30.710Z,13.10
2023-05-12T01:39:57.620Z,13.10
2023-05-12T01:42:24.499Z,13.10
2023-05-12T01:44:51.351Z,13.10
2023-05-12T01:47:18.296Z,13.10
2023-05-12T01:49:45.721Z,13.10
2023-05-12T01:52:12.525Z,13.10
2023-05-12T01:54:39.443Z,13.10
2023-05-12T01:57:06.297Z,13.10
2023-05-12T01:59:33.388Z,13.10
2023-05-12T02:02:00.398Z,13.10
2023-05-12T02:04:27.289Z,13.10
2023-05-12T02:06:54.159Z,13.10
2023-05-12T02:09:23.008Z,13.10
2023-05-12T02:11:50.580Z,13.10
2023-05-12T02:14:17.477Z,13.10
2023-05-12T02:16:44.663Z,13.10
2023-05-12T02:19:11.673Z,13.10
2023-05-12T02:21:40.694Z,13.10
2023-05-12T02:24:07.966Z,13.00
2023-05-12T02:26:34.870Z,13.00
2023-05-12T02:29:02.708Z,13.00
2023-05-12T02:31:35.506Z,13.00
2023-05-12T02:34:08.257Z,12.90
2023-05-12T02:36:35.179Z,12.90
2023-05-12T02:39:02.129Z,12.90
2023-05-12T02:41:29.068Z,12.80
2023-05-12T02:43:55.993Z,12.80
2023-05-12T02:46:22.931Z,12.90
2023-05-12T02:48:49.896Z,12.80
2023-05-12T02:51:16.741Z,12.80
2023-05-12T02:53:43.622Z,12.80
2023-05-12T02:56:12.128Z,12.80
2023-05-12T02:58:39.028Z,12.80
2023-05-12T03:01:10.848Z,12.80
2023-05-12T03:03:39.091Z,12.70
2023-05-12T03:06:06.608Z,12.70
2023-05-12T03:08:34.481Z,12.70
2023-05-12T03:11:01.378Z,12.70
2023-05-12T03:13:28.229Z,12.70
2023-05-12T03:15:55.816Z,12.70
2023-05-12T03:18:22.930Z,12.70
2023-05-12T03:20:49.824Z,12.70
2023-05-12T03:23:16.969Z,12.70
2023-05-12T03:25:43.928Z,12.60
2023-05-12T03:28:13.176Z,12.60
2023-05-12T03:30:40.024Z,12.60
2023-05-12T03:33:06.913Z,12.60
2023-05-12T03:35:33.750Z,12.60
2023-05-12T03:38:00.631Z,12.60
2023-05-12T03:40:29.552Z,12.60
2023-05-12T03:42:56.399Z,12.60
2023-05-12T03:45:23.288Z,12.60
2023-05-12T03:47:53.226Z,12.60
2023-05-12T03:50:20.305Z,12.50
2023-05-12T03:52:47.271Z,12.50
2023-05-12T03:55:14.372Z,12.60
2023-05-12T03:57:41.215Z,12.60
2023-05-12T04:00:08.699Z,12.50
2023-05-12T04:02:35.819Z,12.50
2023-05-12T04:05:02.833Z,12.50
2023-05-12T04:07:30.826Z,12.50
2023-05-12T04:09:57.738Z,12.40
2023-05-12T04:12:24.565Z,12.30
2023-05-12T04:14:51.808Z,12.30
2023-05-12T04:17:21.336Z,12.30
2023-05-12T04:19:49.198Z,12.30
2023-05-12T04:22:16.021Z,12.30
2023-05-12T04:24:42.929Z,12.20
2023-05-12T04:27:09.789Z,12.20
2023-05-12T04:29:37.064Z,12.10
2023-05-12T04:32:04.273Z,12.20
2023-05-12T04:34:32.254Z,12.10
2023-05-12T04:36:59.173Z,12.10
2023-05-12T04:39:26.099Z,12.10
2023-05-12T04:41:52.989Z,12.10
2023-05-12T04:44:19.850Z,12.00
2023-05-12T04:46:46.822Z,12.10
2023-05-12T04:49:13.695Z,12.10
2023-05-12T04:51:42.422Z,12.10
2023-05-12T04:54:12.138Z,12.00
2023-05-12T04:56:39.051Z,12.00
2023-05-12T04:59:06.618Z,12.10
2023-05-12T05:01:33.577Z,12.00
2023-05-12T05:04:01.526Z,12.00
2023-05-12T05:06:29.396Z,12.00
2023-05-12T05:08:56.248Z,12.00
2023-05-12T05:11:23.603Z,12.00
2023-05-12T05:13:50.512Z,12.00
2023-05-12T05:16:17.489Z,12.00
2023-05-12T05:18:46.742Z,12.00
2023-05-12T05:21:16.582Z,11.90
2023-05-12T05:23:43.451Z,11.90
2023-05-12T05:26:10.563Z,11.90
2023-05-12T05:28:39.887Z,11.90
2023-05-12T05:31:07.074Z,11.90
2023-05-12T05:33:33.980Z,11.90
2023-05-12T05:36:00.935Z,11.90
2023-05-12T05:38:27.782Z,11.90
2023-05-12T05:40:54.862Z,11.90
2023-05-12T05:43:21.852Z,11.90
2023-05-12T05:45:50.001Z,11.90
2023-05-12T05:48:17.329Z,11.80
2023-05-12T05:50:44.329Z,11.80
2023-05-12T05:53:11.254Z,11.70
2023-05-12T05:55:38.146Z,11.80
2023-05-12T05:58:05.580Z,11.70
2023-05-12T06:00:32.516Z,11.70
2023-05-12T06:02:59.454Z,11.60
2023-05-12T06:05:26.567Z,11.70
2023-05-12T06:07:53.436Z,11.70
2023-05-12T06:10:20.795Z,11.60
2023-05-12T06:12:47.970Z,11.60
2023-05-12T06:15:16.088Z,11.60
2023-05-12T06:17:43.283Z,11.50
2023-05-12T06:20:13.435Z,11.60
2023-05-12T06:22:42.362Z,11.60
2023-05-12T06:25:09.516Z,11.60
2023-05-12T06:27:36.771Z,11.60
2023-05-12T06:30:04.444Z,11.60
2023-05-12T06:32:31.573Z,11.60
2023-05-12T06:34:58.945Z,11.60
2023-05-12T06:37:25.812Z,11.60
2023-05-12T06:39:53.601Z,11.60
2023-05-12T06:42:20.517Z,11.50
2023-05-12T06:44:47.377Z,11.50
2023-05-12T06:47:14.611Z,11.60
2023-05-12T06:49:41.489Z,11.60
2023-05-12T06:52:08.403Z,11.50
2023-05-12T06:54:35.393Z,11.60
2023-05-12T06:57:02.230Z,11.60
2023-05-12T06:59:30.884Z,11.60
2023-05-12T07:01:58.018Z,11.60
2023-05-12T07:04:26.842Z,11.50
2023-05-12T07:06:54.891Z,11.50
2023-05-12T07:09:21.857Z,11.50
2023-05-12T07:11:48.874Z,11.50
2023-05-12T07:14:15.719Z,11.50
2023-05-12T07:16:42.603Z,11.50
2023-05-12T07:19:09.710Z,11.50
2023-05-12T07:21:37.482Z,11.40
2023-05-12T07:24:06.200Z,11.50
2023-05-12T07:26:33.338Z,11.50
2023-05-12T07:29:01.019Z,11.50
2023-05-12T07:31:29.151Z,11.50
2023-05-12T07:33:56.125Z,11.50
2023-05-12T07:36:23.136Z,11.50
2023-05-12T07:38:50.113Z,11.50
2023-05-12T07:41:18.095Z,11.50
2023-05-12T07:43:45.655Z,11.60
2023-05-12T07:46:13.912Z,11.60
2023-05-12T07:48:40.791Z,11.60
2023-05-12T07:51:08.026Z,11.60
2023-05-12T07:53:34.910Z,11.60
2023-05-12T07:56:01.861Z,11.60
2023-05-12T07:58:28.752Z,11.60
2023-05-12T08:00:57.068Z,11.60
2023-05-12T08:03:24.151Z,11.60
2023-05-12T08:05:51.130Z,11.70
2023-05-12T08:08:18.091Z,11.80
2023-05-12T08:10:45.046Z,11.70
2023-05-12T08:13:12.004Z,11.70
2023-05-12T08:15:38.942Z,11.80
2023-05-12T08:18:05.878Z,11.80
2023-05-12T08:20:33.527Z,11.80
2023-05-12T08:23:00.493Z,11.90
2023-05-12T08:25:30.307Z,12.00
2023-05-12T08:27:59.363Z,12.00
2023-05-12T08:30:26.665Z,12.00
2023-05-12T08:32:57.308Z,12.10
2023-05-12T08:35:25.168Z,12.10
2023-05-12T08:37:53.127Z,12.10
2023-05-12T08:40:23.654Z,12.10
2023-05-12T08:43:30.114Z,12.20
2023-05-12T08:46:00.248Z,12.30
2023-05-12T08:48:28.357Z,12.30
2023-05-12T08:50:55.590Z,12.30
2023-05-12T08:53:23.456Z,12.30
2023-05-12T08:57:08.208Z,12.40
2023-05-12T08:58:41.798Z,12.50
2023-05-12T09:01:09.859Z,12.50
2023-05-12T09:03:36.843Z,12.50
2023-05-12T09:06:03.859Z,12.60
2023-05-12T09:08:33.153Z,12.70
2023-05-12T09:11:00.112Z,12.70
2023-05-12T09:14:02.892Z,12.70
2023-05-12T09:16:31.782Z,12.70
2023-05-12T09:18:59.782Z,12.70
2023-05-12T09:21:27.138Z,12.80
2023-05-12T09:23:57.169Z,12.80
2023-05-12T09:26:25.002Z,12.80
2023-05-12T09:28:53.539Z,12.80
2023-05-12T09:31:24.684Z,12.90
2023-05-12T09:33:52.192Z,12.90
2023-05-12T09:36:23.687Z,13.00
2023-05-12T09:39:19.741Z,13.00
2023-05-12T09:41:46.593Z,13.10
2023-05-12T09:44:16.748Z,13.00
2023-05-12T09:46:43.683Z,13.10
2023-05-12T09:49:10.834Z,13.00
2023-05-12T09:51:37.893Z,13.10
2023-05-12T09:54:06.459Z,13.10
2023-05-12T09:56:35.313Z,13.20
2023-05-12T09:59:02.595Z,13.20
2023-05-12T10:01:29.474Z,13.20
2023-05-12T10:03:57.348Z,13.20
2023-05-12T10:06:35.138Z,13.10
2023-05-12T10:09:07.003Z,13.30
2023-05-12T10:11:33.942Z,13.40
2023-05-12T10:14:00.889Z,13.50
2023-05-12T10:16:29.070Z,13.60
2023-05-12T10:18:56.650Z,13.80
2023-05-12T10:21:24.613Z,13.90
2023-05-12T10:23:51.587Z,14.10
2023-05-12T10:26:18.422Z,14.20
2023-05-12T10:28:45.270Z,14.10
2023-05-12T10:31:12.363Z,14.20
2023-05-12T10:33:39.393Z,14.30
2023-05-12T10:36:16.444Z,14.40
2023-05-12T10:38:43.312Z,14.40
2023-05-12T10:41:11.040Z,14.20
2023-05-12T10:43:43.239Z,14.20
2023-05-12T10:46:12.939Z,14.20
2023-05-12T10:48:55.060Z,14.30
2023-05-12T10:51:31.500Z,14.40
2023-05-12T10:54:03.836Z,14.40
2023-05-12T10:56:40.051Z,14.50
2023-05-12T10:59:19.557Z,14.60
2023-05-12T11:02:01.292Z,14.50
2023-05-12T11:04:54.927Z,14.40
2023-05-12T11:07:32.901Z,14.30
2023-05-12T11:10:01.907Z,14.10
2023-05-12T11:12:35.448Z,14.00
2023-05-12T11:15:03.373Z,13.80
2023-05-12T11:17:30.505Z,13.70
2023-05-12T11:19:58.154Z,13.80
2023-05-12T11:22:27.290Z,13.80
2023-05-12T11:24:54.206Z,14.10
2023-05-12T11:27:22.815Z,14.40
2023-05-12T11:30:00.222Z,14.50
2023-05-12T11:32:27.522Z,14.60
2023-05-12T11:34:54.460Z,14.50
2023-05-12T11:37:21.770Z,14.50
2023-05-12T11:39:48.676Z,14.30
2023-05-12T11:42:17.706Z,14.30
2023-05-12T11:44:50.381Z,14.20
2023-05-12T11:47:17.870Z,14.10
2023-05-12T11:49:48.458Z,14.10
2023-05-12T11:52:15.574Z,14.10
2023-05-12T11:55:11.941Z,14.10
2023-05-12T11:57:39.676Z,14.00
2023-05-12T12:00:08.010Z,14.00
2023-05-12T12:02:37.484Z,13.90
2023-05-12T12:05:07.793Z,14.00
2023-05-12T12:07:36.557Z,14.10
2023-05-12T12:10:14.150Z,14.10
2023-05-12T12:12:44.705Z,14.10
2023-05-12T12:15:13.778Z,14.20
2023-05-12T12:17:40.897Z,14.20
2023-05-12T12:20:09.239Z,14.10
2023-05-12T12:22:36.485Z,14.00
2023-05-12T12:25:03.774Z,14.00
2023-05-12T12:27:30.769Z,14.20
2023-05-12T12:29:58.865Z,14.60
2023-05-12T12:32:25.854Z,15.00
2023-05-12T12:34:53.417Z,15.00
2023-05-12T12:37:21.373Z,14.80
2023-05-12T12:39:48.282Z,14.80
2023-05-12T12:42:15.751Z,14.70
2023-05-12T12:44:42.957Z,14.50
2023-05-12T12:47:09.919Z,14.40
2023-05-12T12:49:36.918Z,14.30
2023-05-12T12:52:03.982Z,14.30
2023-05-12T12:54:33.228Z,14.30
2023-05-12T12:57:00.093Z,14.30
2023-05-12T12:59:27.245Z,14.50
2023-05-12T13:01:54.286Z,14.70
2023-05-12T13:04:23.127Z,14.80
2023-05-12T13:06:50.089Z,14.80
2023-05-12T13:09:19.787Z,14.80
2023-05-12T13:11:47.636Z,14.60
2023-05-12T13:14:14.544Z,14.60
2023-05-12T13:16:41.846Z,14.50
2023-05-12T13:19:09.076Z,14.50
2023-05-12T13:21:36.026Z,14.50
2023-05-12T13:24:02.858Z,14.50
2023-05-12T13:26:30.750Z,14.40
2023-05-12T13:28:59.608Z,14.40
2023-05-12T13:31:27.506Z,14.40
2023-05-12T13:33:54.474Z,14.50
2023-05-12T13:36:21.318Z,14.60
2023-05-12T13:38:48.159Z,14.70
2023-05-12T13:41:16.032Z,14.80
2023-05-12T13:43:43.729Z,15.00
2023-05-12T13:46:10.679Z,15.10
2023-05-12T13:48:37.576Z,15.40
2023-05-12T13:51:04.651Z,15.50
2023-05-12T13:53:32.213Z,15.50
2023-05-12T13:55:59.155Z,15.40
2023-05-12T13:58:26.027Z,15.40
2023-05-12T14:00:53.268Z,15.30
2023-05-12T14:03:21.631Z,15.30
2023-05-12T14:05:48.461Z,15.20
2023-05-12T14:08:15.308Z,15.20
2023-05-12T14:10:42.741Z,15.10
2023-05-12T14:13:09.582Z,15.20
2023-05-12T14:15:47.228Z,15.20
2023-05-12T14:18:15.984Z,15.30
2023-05-12T14:20:42.852Z,15.50
2023-05-12T14:23:09.815Z,15.60
2023-05-12T14:25:36.657Z,15.80
2023-05-12T14:28:03.740Z,16.20
2023-05-12T14:30:31.030Z,16.70
2023-05-12T14:32:58.069Z,17.40
2023-05-12T14:35:27.711Z,17.70
2023-05-12T14:37:55.560Z,18.00
2023-05-12T14:40:23.202Z,18.10
2023-05-12T14:42:50.463Z,18.20
2023-05-12T14:45:17.837Z,18.30
2023-05-12T14:47:45.041Z,18.30
2023-05-12T14:50:12.232Z,18.50
2023-05-12T14:52:39.407Z,18.60
2023-05-12T14:55:11.411Z,18.70
2023-05-12T14:57:39.033Z,18.80
2023-05-12T15:00:10.995Z,19.00
2023-05-12T15:02:38.615Z,19.00
2023-05-12T15:05:07.245Z,18.60
2023-05-12T15:07:34.277Z,18.40
2023-05-12T15:10:01.251Z,18.10
2023-05-12T15:12:30.195Z,18.00
2023-05-12T15:14:57.153Z,17.80
2023-05-12T15:17:24.188Z,17.70
2023-05-12T15:19:51.159Z,17.60
2023-05-12T15:22:18.030Z,17.60
2023-05-12T15:24:44.936Z,17.70
2023-05-12T15:27:11.968Z,17.60
2023-05-12T15:29:39.737Z,17.60
2023-05-12T15:32:07.524Z,17.50
2023-05-12T15:34:35.097Z,17.40
2023-05-12T15:37:03.094Z,17.40
2023-05-12T15:39:29.984Z,17.30
2023-05-12T15:41:58.960Z,17.50
2023-05-12T15:44:25.902Z,17.60
2023-05-12T15:46:53.013Z,17.90
2023-05-12T15:49:20.042Z,18.50
2023-05-12T15:51:46.991Z,18.50
2023-05-12T15:54:13.911Z,18.50
2023-05-12T15:56:40.891Z,18.40
2023-05-12T15:59:07.828Z,18.30
2023-05-12T16:01:34.944Z,18.10
2023-05-12T16:04:02.890Z,17.90
2023-05-12T16:06:32.852Z,17.80
2023-05-12T16:09:00.752Z,17.80
2023-05-12T16:11:28.413Z,17.70
2023-05-12T16:13:57.065Z,17.60
2023-05-12T16:16:25.229Z,17.70
2023-05-12T16:18:52.194Z,17.60
2023-05-12T16:21:20.166Z,17.60
2023-05-12T16:23:47.303Z,17.30
2023-05-12T16:26:14.138Z,16.80
2023-05-12T16:28:41.090Z,16.50
2023-05-12T16:31:08.189Z,16.30
2023-05-12T16:33:35.209Z,16.00
2023-05-12T16:36:02.448Z,15.80
2023-05-12T16:38:32.347Z,15.70
2023-05-12T16:41:02.414Z,15.60
2023-05-12T16:43:29.267Z,15.60
2023-05-12T16:46:01.253Z,15.50
2023-05-12T16:48:33.534Z,15.40
2023-05-12T16:51:07.020Z,15.40
2023-05-12T16:56:17.821Z,15.20
2023-05-12T16:58:44.709Z,15.20
2023-05-12T17:01:11.990Z,15.30
2023-05-12T17:04:03.648Z,15.30
2023-05-12T17:06:32.622Z,15.30
2023-05-12T17:08:59.569Z,15.20
2023-05-12T17:11:26.459Z,15.20
2023-05-12T17:13:53.804Z,15.20
2023-05-12T17:16:21.133Z,15.10
2023-05-12T17:21:22.272Z,15.00
2023-05-12T17:23:50.761Z,15.10
2023-05-12T17:26:21.109Z,15.00
2023-05-12T17:28:48.194Z,15.00
2023-05-12T17:31:25.817Z,15.00
2023-05-12T17:33:54.762Z,15.10
2023-05-12T17:36:22.100Z,15.10
2023-05-12T17:38:58.947Z,15.10
2023-05-12T17:41:28.975Z,15.10
2023-05-12T17:43:56.164Z,15.00
2023-05-12T17:46:24.136Z,14.90
2023-05-12T17:49:04.384Z,14.80
2023-05-12T17:51:33.274Z,14.70
2023-05-12T17:54:20.802Z,14.70
2023-05-12T17:56:48.051Z,14.60
2023-05-12T17:59:14.974Z,14.70
2023-05-12T18:01:41.856Z,14.70
2023-05-12T18:04:09.114Z,14.60
2023-05-12T18:06:36.046Z,14.60
2023-05-12T18:09:03.933Z,14.50
2023-05-12T18:11:31.822Z,14.40
2023-05-12T18:14:01.871Z,14.40
2023-05-12T18:16:29.617Z,14.40
2023-05-12T18:18:57.025Z,14.40
2023-05-12T18:21:24.098Z,14.30
2023-05-12T18:23:50.997Z,14.30
2023-05-12T18:26:19.009Z,14.30
2023-05-12T18:28:46.919Z,14.30
2023-05-12T18:31:16.310Z,14.20
2023-05-12T18:33:46.907Z,14.20
2023-05-12T18:36:13.904Z,14.10
2023-05-12T18:38:40.844Z,14.10
2023-05-12T18:41:07.899Z,14.10
2023-05-12T18:43:35.044Z,14.10
2023-05-12T18:46:02.393Z,14.10
2023-05-12T18:48:31.134Z,14.00
2023-05-12T18:50:57.973Z,14.00
2023-05-12T18:53:27.891Z,13.90
2023-05-12T18:55:54.824Z,13.90
2023-05-12T18:58:21.702Z,13.90
2023-05-12T19:00:48.634Z,13.90
2023-05-12T19:03:15.510Z,13.90
2023-05-12T19:05:44.589Z,13.80
2023-05-12T19:08:12.700Z,13.80
2023-05-12T19:10:40.700Z,13.80
2023-05-12T19:13:08.285Z,13.80
2023-05-12T19:15:36.172Z,13.80
2023-05-12T19:18:03.139Z,13.80
2023-05-12T19:20:30.917Z,13.80
2023-05-12T19:22:59.757Z,13.90
2023-05-12T19:25:26.686Z,13.90
2023-05-12T19:27:53.610Z,14.00
2023-05-12T19:30:20.686Z,14.00
2023-05-12T19:32:50.113Z,14.10
2023-05-12T19:35:17.302Z,14.10
2023-05-12T19:37:44.397Z,14.20
2023-05-12T19:40:14.526Z,14.30
2023-05-12T19:42:42.481Z,14.30
2023-05-12T19:45:15.669Z,14.30
2023-05-12T19:47:42.642Z,14.40
2023-05-12T19:50:10.214Z,14.40
2023-05-12T19:52:37.439Z,14.40
2023-05-12T19:55:04.694Z,14.40
2023-05-12T19:57:31.576Z,14.30
2023-05-12T19:59:58.450Z,14.30
2023-05-12T20:02:30.892Z,14.30
2023-05-12T20:05:01.399Z,14.40
2023-05-12T20:07:28.308Z,14.40
2023-05-12T20:09:55.294Z,14.50
2023-05-12T20:12:22.365Z,14.60
2023-05-12T20:14:49.302Z,14.60
2023-05-12T20:17:16.248Z,14.70
2023-05-12T20:19:43.246Z,14.70
2023-05-12T20:22:12.803Z,14.80
2023-05-12T20:24:39.738Z,14.80
2023-05-12T20:27:07.955Z,15.00
2023-05-12T20:29:38.021Z,15.00
2023-05-12T20:32:05.107Z,15.00
2023-05-12T20:34:33.386Z,15.10
2023-05-12T20:37:00.334Z,15.00
2023-05-12T20:39:27.165Z,15.10
2023-05-12T20:41:56.138Z,15.10
2023-05-12T20:44:23.075Z,15.10
2023-05-12T20:46:50.340Z,15.20
2023-05-12T20:49:17.285Z,15.10
2023-05-12T20:51:46.179Z,15.10
2023-05-12T20:54:14.021Z,15.20
2023-05-12T20:56:40.850Z,15.20
2023-05-12T20:59:07.744Z,15.20
2023-05-12T21:01:35.591Z,15.20
2023-05-12T21:04:04.585Z,15.10
2023-05-12T21:06:32.806Z,15.10
2023-05-12T21:08:59.719Z,15.00
2023-05-12T21:11:26.987Z,15.00
2023-05-12T21:13:53.864Z,15.00
2023-05-12T21:16:21.156Z,15.00
2023-05-12T21:18:48.148Z,15.00
2023-05-12T21:21:15.066Z,15.00
2023-05-12T21:23:42.041Z,15.00
2023-05-12T21:26:10.517Z,15.10
2023-05-12T21:28:37.721Z,15.10
2023-05-12T21:31:05.636Z,15.10
2023-05-12T21:33:35.604Z,15.10
2023-05-12T21:36:03.631Z,14.90
2023-05-12T21:38:32.041Z,14.40
2023-05-12T21:41:00.568Z,14.10
2023-05-12T21:43:27.571Z,13.80
2023-05-12T21:45:54.454Z,13.60
2023-05-12T21:48:21.620Z,13.60
2023-05-12T21:51:00.317Z,13.50
2023-05-12T21:53:27.675Z,13.40
2023-05-12T21:55:54.643Z,13.30
2023-05-12T21:58:24.688Z,13.30
2023-05-12T22:00:54.786Z,13.20
2023-05-12T22:03:22.034Z,13.30
2023-05-12T22:05:49.055Z,13.20
2023-05-12T22:08:20.526Z,13.20
2023-05-12T22:10:47.462Z,13.20
2023-05-12T22:13:16.092Z,13.20
2023-05-12T22:15:43.086Z,13.20
2023-05-12T22:18:17.142Z,13.20
2023-05-12T22:20:44.640Z,13.10
2023-05-12T22:23:17.688Z,13.10
2023-05-12T22:25:45.565Z,13.10
2023-05-12T22:28:12.493Z,13.10
2023-05-12T22:30:41.678Z,13.10
2023-05-12T22:33:17.883Z,13.10
2023-05-12T22:35:44.877Z,13.10
2023-05-12T22:38:12.811Z,13.10
2023-05-12T22:40:42.974Z,13.10
2023-05-12T22:43:16.864Z,13.10
2023-05-12T22:45:55.959Z,13.10
2023-05-12T22:48:26.895Z,13.10
2023-05-12T22:50:56.871Z,13.00
2023-05-12T22:53:23.835Z,13.00
2023-05-12T22:55:50.720Z,13.00
2023-05-12T22:58:19.619Z,13.00
2023-05-12T23:00:46.704Z,13.00
2023-05-12T23:03:15.605Z,12.90
2023-05-12T23:05:43.003Z,13.00
2023-05-12T23:08:09.943Z,13.00
2023-05-12T23:10:37.008Z,13.00
2023-05-12T23:13:03.992Z,12.90
2023-05-12T23:15:32.929Z,13.00
2023-05-12T23:18:00.831Z,12.90
2023-05-12T23:20:29.084Z,12.90
2023-05-12T23:22:58.039Z,12.80
2023-05-12T23:25:27.027Z,12.80
2023-05-12T23:27:53.871Z,12.80
2023-05-12T23:30:21.953Z,12.80
2023-05-12T23:32:50.698Z,12.80
2023-05-12T23:35:17.713Z,12.80
2023-05-12T23:37:44.631Z,12.80
2023-05-12T23:40:11.711Z,12.80
2023-05-12T23:45:20.437Z,12.80
2023-05-12T23:47:53.294Z,12.80
2023-05-12T23:50:21.943Z,12.80
2023-05-12T23:52:55.081Z,12.80
2023-05-12T23:55:24.933Z,12.80
2023-05-12T23:57:51.855Z,12.80
